Time;durP1;ratioP1;P1;durP2;ratioP2;P2;SDS_P1;SDS_P2;PMS_P1;PMS_P2;Temp;Humidity;BMP_temperature;BMP_pressure;BME280_temperature;BME280_humidity;BME280_pressure;Samples;Min_cycle;Max_cycle;Signal;HPM_P1;HPM_P2
2021/05/23 00:01:25;;;;;;;1.17;0.63;;;;;;;18.87;45.75;100630.69;5042014;28;20051;-73
2021/05/23 00:03:52;;;;;;;0.73;0.52;;;;;;;18.88;46.28;100632.31;5071325;28;20075;-73
2021/05/23 00:06:19;;;;;;;0.43;0.40;;;;;;;18.87;46.13;100631.50;5071158;28;20187;-73
2021/05/23 00:08:46;;;;;;;0.50;0.50;;;;;;;18.88;46.12;100635.00;5072891;28;20063;-73
2021/05/23 00:11:13;;;;;;;0.63;0.50;;;;;;;18.88;46.13;100632.31;5054552;28;20041;-73
2021/05/23 00:13:44;;;;;;;0.47;0.47;;;;;;;18.88;46.06;100621.56;5072538;28;20048;-73
2021/05/23 00:16:17;;;;;;;0.60;0.60;;;;;;;18.88;45.84;100621.56;5058976;28;20045;-73
2021/05/23 00:18:47;;;;;;;0.93;0.50;;;;;;;18.87;46.17;100631.50;5018872;28;20409;-73
2021/05/23 00:21:18;;;;;;;0.50;0.50;;;;;;;18.88;46.17;100635.00;5051529;28;20079;-73
2021/05/23 00:23:45;;;;;;;0.47;0.47;;;;;;;18.89;45.85;100628.59;5035020;28;20079;-73
2021/05/23 00:26:13;;;;;;;0.68;0.50;;;;;;;18.87;46.14;100623.44;5042244;28;20079;-73
2021/05/23 00:28:41;;;;;;;0.73;0.50;;;;;;;18.87;46.14;100626.13;5058801;28;20047;-73
2021/05/23 00:31:08;;;;;;;0.52;0.50;;;;;;;18.88;46.02;100632.31;5039095;28;20135;-73
2021/05/23 00:33:36;;;;;;;0.43;0.43;;;;;;;18.88;45.91;100633.16;5038753;28;20059;-73
2021/05/23 00:36:04;;;;;;;0.50;0.38;;;;;;;18.88;46.06;100637.69;5056327;28;20060;-73
2021/05/23 00:38:31;;;;;;;0.95;0.47;;;;;;;18.88;46.02;100633.16;5038466;28;20060;-73
2021/05/23 00:40:58;;;;;;;0.40;0.40;;;;;;;18.86;46.28;100631.69;5055260;28;20076;-73
2021/05/23 00:43:26;;;;;;;1.65;0.60;;;;;;;18.88;46.18;100638.53;5038752;28;20045;-73
2021/05/23 00:45:53;;;;;;;0.73;0.55;;;;;;;18.88;46.14;100638.53;5055061;28;20041;-73
2021/05/23 00:48:22;;;;;;;0.47;0.43;;;;;;;18.86;46.10;100631.69;5051234;28;20516;-73
2021/05/23 00:50:50;;;;;;;0.40;0.40;;;;;;;18.86;46.22;100637.06;5054890;28;20378;-73
2021/05/23 00:53:17;;;;;;;0.95;0.52;;;;;;;18.85;45.98;100638.94;5056134;28;20052;-73
2021/05/23 00:55:45;;;;;;;1.02;0.60;;;;;;;18.86;45.90;100637.06;5061119;28;20447;-73
2021/05/23 00:58:12;;;;;;;1.35;0.60;;;;;;;18.86;46.21;100645.97;5058085;28;20041;-73
2021/05/23 01:06:10;;;;;;;0.50;0.50;;;;;;;18.88;46.10;100645.75;5111020;27;20351;-74
2021/05/23 01:08:38;;;;;;;0.40;0.40;;;;;;;18.86;46.15;100647.81;5092962;28;20040;-73
2021/05/23 01:11:27;;;;;;;1.02;0.60;;;;;;;18.87;46.10;100650.31;5110818;28;20441;-74
2021/05/23 01:16:38;;;;;;;0.38;0.38;;;;;;;18.87;46.30;100652.19;5110820;27;20354;-72
2021/05/23 01:19:33;;;;;;;0.68;0.50;;;;;;;18.87;46.02;100644.13;5109322;28;20044;-72
2021/05/23 01:22:11;;;;;;;0.60;0.40;;;;;;;18.79;46.20;100637.91;5103266;28;20048;-72
2021/05/23 01:24:41;;;;;;;0.77;0.60;;;;;;;18.85;46.00;100644.31;5092533;28;20040;-72
2021/05/23 01:27:12;;;;;;;1.38;0.52;;;;;;;18.84;46.08;100650.72;5109228;28;20051;-72
2021/05/23 01:29:40;;;;;;;0.80;0.57;;;;;;;18.86;46.02;100655.88;5089115;28;20382;-72
2021/05/23 01:32:08;;;;;;;0.65;0.52;;;;;;;18.86;45.88;100651.34;5089071;28;20044;-71
2021/05/23 01:34:35;;;;;;;0.98;0.52;;;;;;;18.86;46.11;100658.56;5088434;28;20048;-72
2021/05/23 01:37:12;;;;;;;1.00;0.60;;;;;;;18.85;46.25;100646.19;5088965;28;20201;-71
2021/05/23 01:39:40;;;;;;;0.70;0.60;;;;;;;18.85;46.11;100648.88;5092454;28;20043;-72
2021/05/23 01:42:09;;;;;;;0.57;0.40;;;;;;;18.85;46.19;100649.69;5109260;28;20563;-72
2021/05/23 01:44:36;;;;;;;0.57;0.50;;;;;;;18.76;46.09;100641.00;5092393;28;20063;-72
2021/05/23 01:47:03;;;;;;;1.20;0.50;;;;;;;18.86;45.98;100640.59;5085945;28;20488;-73
2021/05/23 01:49:31;;;;;;;0.90;0.55;;;;;;;18.85;46.02;100640.81;5108869;28;20063;-74
2021/05/23 01:51:58;;;;;;;1.60;0.47;;;;;;;18.85;45.97;100646.19;5110302;28;20044;-74
2021/05/23 01:54:25;;;;;;;1.00;0.50;;;;;;;18.85;45.91;100646.19;5091837;28;20554;-73
2021/05/23 01:57:01;;;;;;;0.95;0.70;;;;;;;18.84;46.13;100645.34;5088418;28;20690;-73
2021/05/23 01:59:28;;;;;;;1.13;0.60;;;;;;;18.85;46.07;100648.88;5094585;28;20043;-74
2021/05/23 02:01:54;;;;;;;1.25;0.70;;;;;;;18.84;45.98;100650.72;5108844;28;20561;-73
2021/05/23 02:04:22;;;;;;;0.60;0.47;;;;;;;18.84;46.12;100648.03;5109738;28;20044;-73
2021/05/23 02:06:50;;;;;;;1.30;0.60;;;;;;;18.85;46.11;100652.38;5108290;28;20462;-74
2021/05/23 02:09:17;;;;;;;0.50;0.50;;;;;;;18.82;46.00;100658.16;5108794;28;20511;-73
2021/05/23 02:11:44;;;;;;;1.20;0.43;;;;;;;18.84;46.06;100648.03;5091983;28;20043;-74
2021/05/23 02:14:14;;;;;;;0.55;0.50;;;;;;;18.79;46.33;100640.59;5107814;28;20040;-74
2021/05/23 02:16:41;;;;;;;0.65;0.50;;;;;;;18.84;45.90;100653.41;5108437;28;20096;-74
2021/05/23 02:19:08;;;;;;;1.13;0.60;;;;;;;18.82;46.13;100658.16;5091876;28;20051;-73
2021/05/23 02:21:34;;;;;;;1.05;0.80;;;;;;;18.84;46.04;100656.09;5109378;28;20067;-73
2021/05/23 02:24:03;;;;;;;0.85;0.60;;;;;;;18.83;46.32;100661.69;5075029;28;20046;-73
2021/05/23 02:26:30;;;;;;;0.90;0.60;;;;;;;18.85;46.12;100662.31;5082692;28;20106;-75
2021/05/23 02:28:57;;;;;;;0.95;0.60;;;;;;;18.82;46.10;100658.16;5075061;28;20086;-73
2021/05/23 02:31:24;;;;;;;0.98;0.60;;;;;;;18.81;46.08;100664.59;5094788;28;20541;-74
2021/05/23 02:33:52;;;;;;;1.23;0.70;;;;;;;18.85;46.14;100659.63;5078108;28;20055;-73
2021/05/23 02:36:19;;;;;;;1.08;0.65;;;;;;;18.85;45.78;100655.06;5077559;28;20445;-73
2021/05/23 02:38:48;;;;;;;1.13;0.60;;;;;;;18.81;45.96;100661.91;5095597;28;20036;-73
2021/05/23 02:41:15;;;;;;;1.52;0.70;;;;;;;18.80;45.88;100663.72;5094120;28;20039;-74
2021/05/23 02:43:42;;;;;;;1.00;0.40;;;;;;;18.82;45.89;100668.91;5078243;28;20484;-73
2021/05/23 02:46:09;;;;;;;1.10;0.70;;;;;;;18.84;45.73;100671.41;5077853;28;20032;-73
2021/05/23 02:48:36;;;;;;;0.90;0.60;;;;;;;18.80;46.12;100671.78;5077946;28;20203;-73
2021/05/23 02:51:03;;;;;;;1.35;0.60;;;;;;;18.80;45.77;100677.16;5057469;28;20040;-73
2021/05/23 02:53:31;;;;;;;0.50;0.50;;;;;;;18.84;46.05;100679.47;5084908;28;20089;-74
2021/05/23 02:55:58;;;;;;;1.13;0.60;;;;;;;18.82;45.84;100676.16;5094471;28;20117;-73
2021/05/23 02:58:26;;;;;;;1.08;0.57;;;;;;;18.84;45.87;100677.59;5095311;28;20040;-74
2021/05/23 03:00:53;;;;;;;1.92;0.85;;;;;;;18.84;45.77;100682.97;5094095;28;20072;-73
2021/05/23 03:03:19;;;;;;;0.63;0.60;;;;;;;18.84;45.82;100684.84;5077311;28;20454;-73
2021/05/23 03:05:48;;;;;;;0.70;0.50;;;;;;;18.82;46.05;100685.03;5111069;28;20480;-74
2021/05/23 03:08:15;;;;;;;1.55;0.70;;;;;;;18.83;45.72;100689.41;5094955;28;20044;-73
2021/05/23 03:10:46;;;;;;;1.30;0.70;;;;;;;18.84;45.95;100690.22;5077208;28;20150;-73
2021/05/23 03:13:14;;;;;;;1.08;0.60;;;;;;;18.82;45.91;100693.09;5094082;28;20055;-74
2021/05/23 03:15:42;;;;;;;1.35;0.63;;;;;;;18.81;46.05;100696.84;5093436;28;20036;-72
2021/05/23 03:18:09;;;;;;;1.80;0.77;;;;;;;18.82;45.80;100694.97;5070546;28;20416;-74
2021/05/23 03:20:40;;;;;;;1.15;0.60;;;;;;;18.84;45.85;100701.78;5093698;28;20151;-74
2021/05/23 03:23:08;;;;;;;0.82;0.70;;;;;;;18.79;46.00;100702.41;5094787;28;20088;-74
2021/05/23 03:25:36;;;;;;;1.23;0.60;;;;;;;18.82;46.01;100709.22;5093608;28;20068;-74
2021/05/23 03:28:04;;;;;;;0.90;0.65;;;;;;;18.82;46.15;100716.47;5067680;28;20044;-73
2021/05/23 03:30:35;;;;;;;1.52;0.70;;;;;;;18.82;45.78;100713.78;5094731;28;20072;-74
2021/05/23 03:33:04;;;;;;;1.10;0.70;;;;;;;18.80;45.98;100716.66;5093426;28;20070;-74
2021/05/23 03:35:31;;;;;;;1.38;0.80;;;;;;;18.81;45.83;100723.72;5093093;28;20055;-73
2021/05/23 03:37:58;;;;;;;1.88;0.80;;;;;;;18.78;45.91;100724.09;5092157;28;20561;-73
2021/05/23 03:40:25;;;;;;;1.70;0.80;;;;;;;18.79;45.89;100725.72;5076475;28;20046;-73
2021/05/23 03:42:52;;;;;;;1.13;0.60;;;;;;;18.80;45.97;100728.22;5093332;28;20089;-73
2021/05/23 03:45:21;;;;;;;0.57;0.50;;;;;;;18.80;45.80;100730.91;5043464;28;20044;-74
2021/05/23 03:47:49;;;;;;;1.48;0.70;;;;;;;18.82;46.06;100737.97;5059915;28;20093;-73
2021/05/23 03:50:20;;;;;;;1.35;0.80;;;;;;;18.80;45.73;100736.28;5092706;28;20128;-73
2021/05/23 03:52:48;;;;;;;1.15;0.70;;;;;;;18.80;45.93;100743.53;5092941;28;20066;-73
2021/05/23 03:55:16;;;;;;;1.38;0.70;;;;;;;18.80;45.72;100738.16;5094149;28;20040;-74
2021/05/23 03:57:44;;;;;;;1.60;0.70;;;;;;;18.71;45.92;100726.78;5076375;28;20078;-74
2021/05/23 04:00:14;;;;;;;1.33;0.80;;;;;;;18.80;46.20;100747.03;5076386;28;20059;-73
2021/05/23 04:02:45;;;;;;;1.48;0.75;;;;;;;18.80;45.92;100744.34;5076280;28;20056;-73
2021/05/23 04:05:13;;;;;;;0.88;0.70;;;;;;;18.81;45.74;100753.28;5093788;28;20488;-73
2021/05/23 04:07:40;;;;;;;1.40;0.70;;;;;;;18.81;46.13;100753.28;5092478;28;20036;-74
2021/05/23 04:10:08;;;;;;;0.95;0.70;;;;;;;18.79;45.73;100764.19;5092964;28;20039;-74
2021/05/23 04:12:40;;;;;;;0.98;0.52;;;;;;;18.82;46.10;100764.84;5093098;28;20094;-73
2021/05/23 04:15:08;;;;;;;1.30;0.82;;;;;;;18.83;45.88;100767.34;5092050;28;20048;-74
2021/05/23 04:17:36;;;;;;;1.27;0.70;;;;;;;18.80;45.97;100768.53;5059497;28;20047;-74
2021/05/23 04:20:08;;;;;;;0.95;0.60;;;;;;;18.80;46.08;100770.38;5093532;28;20040;-73
2021/05/23 04:22:35;;;;;;;0.93;0.60;;;;;;;18.80;45.86;100773.06;5092518;28;20044;-73
2021/05/23 04:25:09;;;;;;;0.60;0.60;;;;;;;18.80;45.94;100773.91;5072659;28;20409;-74
2021/05/23 04:27:36;;;;;;;1.17;0.70;;;;;;;18.81;45.86;100774.78;5055129;28;20052;-74
2021/05/23 04:30:05;;;;;;;0.93;0.70;;;;;;;18.82;45.85;100775.59;5082389;28;20789;-73
2021/05/23 04:32:33;;;;;;;0.73;0.60;;;;;;;18.82;45.88;100783.66;5092514;28;20040;-73
2021/05/23 04:35:01;;;;;;;0.93;0.60;;;;;;;18.80;45.84;100784.66;5092109;28;20093;-73
2021/05/23 04:37:30;;;;;;;0.93;0.60;;;;;;;18.82;45.93;100789.03;5075846;28;20056;-73
2021/05/23 04:39:57;;;;;;;1.35;0.57;;;;;;;18.80;45.95;100792.72;5092255;28;20075;-73
2021/05/23 04:42:24;;;;;;;1.20;0.73;;;;;;;18.80;45.77;100797.25;5092424;28;20052;-74
2021/05/23 04:45:09;;;;;;;1.95;0.80;;;;;;;18.80;45.92;100806.16;5092520;28;20050;-73
2021/05/23 04:47:37;;;;;;;0.98;0.60;;;;;;;18.79;45.86;100804.50;5092290;28;20496;-73
2021/05/23 04:50:05;;;;;;;2.65;0.73;;;;;;;18.82;45.92;100810.53;5068843;28;20067;-73
2021/05/23 04:52:33;;;;;;;1.77;0.70;;;;;;;18.82;46.02;100810.53;5091961;28;20153;-74
2021/05/23 04:54:59;;;;;;;1.15;0.80;;;;;;;18.81;46.01;100812.41;5092007;28;20052;-74
2021/05/23 04:57:26;;;;;;;1.55;0.70;;;;;;;18.80;45.95;100814.22;5091804;28;20048;-74
2021/05/23 04:59:53;;;;;;;1.20;0.60;;;;;;;18.81;45.79;100823.16;5091996;28;20032;-74
2021/05/23 05:02:20;;;;;;;1.27;0.80;;;;;;;18.74;45.78;100809.66;5093205;28;20040;-74
2021/05/23 05:04:48;;;;;;;1.27;0.73;;;;;;;18.81;45.88;100820.47;5091498;28;20047;-74
2021/05/23 05:07:15;;;;;;;1.05;0.70;;;;;;;18.80;45.69;100824.97;5091337;28;20527;-73
2021/05/23 05:09:42;;;;;;;0.80;0.70;;;;;;;18.81;46.15;100825.84;5075217;28;20501;-74
2021/05/23 05:12:10;;;;;;;0.95;0.70;;;;;;;18.82;45.83;100832.84;5092163;28;20093;-74
2021/05/23 05:14:37;;;;;;;0.63;0.60;;;;;;;18.82;46.06;100835.53;5092660;28;20098;-72
2021/05/23 05:17:04;;;;;;;0.73;0.60;;;;;;;18.82;45.90;100835.53;5074953;28;20036;-73
2021/05/23 05:19:31;;;;;;;1.27;0.80;;;;;;;18.82;45.92;100842.78;5091551;28;20032;-73
2021/05/23 05:21:58;;;;;;;2.40;0.90;;;;;;;18.82;45.71;100838.22;5075133;28;20127;-73
2021/05/23 05:24:25;;;;;;;1.23;0.88;;;;;;;18.84;45.72;100843.41;5071431;28;20047;-74
2021/05/23 05:26:52;;;;;;;1.30;0.70;;;;;;;18.84;45.82;100854.16;5055037;28;20040;-73
2021/05/23 05:29:19;;;;;;;1.08;0.90;;;;;;;18.81;46.01;100852.72;5059071;28;20052;-73
2021/05/23 05:31:46;;;;;;;1.58;0.70;;;;;;;18.82;45.99;100856.22;5058552;28;20075;-73
2021/05/23 05:34:13;;;;;;;1.63;0.75;;;;;;;18.83;45.97;100860.53;5074582;28;20484;-73
2021/05/23 05:36:40;;;;;;;1.25;0.60;;;;;;;18.74;46.00;100849.97;5091328;28;20043;-74
2021/05/23 05:39:08;;;;;;;0.95;0.60;;;;;;;18.78;45.96;100861.13;5092752;28;20497;-73
2021/05/23 05:41:35;;;;;;;0.75;0.50;;;;;;;18.82;45.93;100864.28;5052030;28;20144;-73
2021/05/23 05:44:03;;;;;;;1.83;0.75;;;;;;;18.81;45.75;100866.16;5075040;28;20036;-73
2021/05/23 05:46:30;;;;;;;1.10;0.70;;;;;;;18.82;46.02;100864.28;5074966;28;20040;-73
2021/05/23 05:48:57;;;;;;;2.28;1.00;;;;;;;18.82;45.82;100864.28;5089265;28;20052;-73
2021/05/23 05:51:24;;;;;;;0.60;0.60;;;;;;;18.80;46.04;100864.44;5054802;28;20403;-74
2021/05/23 05:53:51;;;;;;;1.40;0.70;;;;;;;18.82;46.01;100872.34;5088143;28;20045;-73
2021/05/23 05:56:19;;;;;;;1.45;0.70;;;;;;;18.84;46.07;100875.66;5071126;28;20116;-73
2021/05/23 05:58:46;;;;;;;2.67;0.73;;;;;;;18.81;45.98;100868.84;5072554;28;20048;-73
2021/05/23 06:01:13;;;;;;;1.00;0.68;;;;;;;18.85;46.06;100880.81;5104257;28;20040;-74
2021/05/23 06:03:39;;;;;;;1.73;0.90;;;;;;;18.74;46.05;100867.97;5091547;28;20066;-73
2021/05/23 06:06:06;;;;;;;1.08;0.60;;;;;;;18.83;45.99;100882.03;5061554;28;20040;-74
2021/05/23 06:08:33;;;;;;;0.98;0.70;;;;;;;18.74;46.20;100873.34;5094796;28;20118;-73
2021/05/23 06:11:01;;;;;;;2.08;0.60;;;;;;;18.83;45.99;100893.63;5078239;28;20055;-73
2021/05/23 06:13:28;;;;;;;2.50;0.90;;;;;;;18.80;46.01;100886.75;5078246;28;20465;-74
2021/05/23 06:15:55;;;;;;;1.17;0.70;;;;;;;18.83;45.91;100888.25;5060700;28;20054;-73
2021/05/23 06:18:26;;;;;;;1.42;0.70;;;;;;;18.80;45.91;100902.06;5096027;28;20381;-73
2021/05/23 06:20:55;;;;;;;1.98;0.80;;;;;;;18.80;46.03;100907.44;5071965;28;20564;-73
2021/05/23 06:23:22;;;;;;;1.00;0.68;;;;;;;18.82;46.25;100912.66;5094459;28;20109;-73
2021/05/23 06:25:49;;;;;;;0.88;0.70;;;;;;;18.84;46.04;100918.66;5094550;28;20463;-73
2021/05/23 06:28:16;;;;;;;2.45;0.80;;;;;;;18.81;46.11;100919.91;5094438;28;20495;-73
2021/05/23 06:30:44;;;;;;;2.10;0.68;;;;;;;18.84;45.85;100916.78;5077504;28;20040;-73
2021/05/23 06:33:10;;;;;;;1.85;0.63;;;;;;;18.75;46.32;100904.53;5094627;28;20052;-73
2021/05/23 06:35:38;;;;;;;0.57;0.52;;;;;;;18.84;45.96;100927.53;5094231;28;20036;-73
2021/05/23 06:38:04;;;;;;;1.80;0.80;;;;;;;18.83;46.06;100925.88;5094244;28;20036;-73
2021/05/23 06:40:32;;;;;;;0.85;0.60;;;;;;;18.85;46.14;100937.25;5095581;28;20098;-73
2021/05/23 06:42:59;;;;;;;1.05;0.65;;;;;;;18.85;45.92;100939.13;5094033;28;20456;-73
2021/05/23 06:45:26;;;;;;;0.85;0.60;;;;;;;18.85;45.98;100936.44;5095502;28;20496;-73
2021/05/23 06:47:53;;;;;;;1.38;0.70;;;;;;;18.87;45.90;100945.13;5074415;28;20032;-73
2021/05/23 06:50:20;;;;;;;1.65;0.50;;;;;;;18.85;46.12;100947.19;5074169;28;20041;-73
2021/05/23 06:52:48;;;;;;;1.23;0.50;;;;;;;18.85;46.14;100953.38;5090418;28;20043;-73
2021/05/23 06:55:16;;;;;;;1.52;0.68;;;;;;;18.85;45.90;100960.63;5068212;28;20044;-73
2021/05/23 06:57:43;;;;;;;0.85;0.57;;;;;;;18.85;46.36;100957.94;5093488;28;20075;-74
2021/05/23 07:00:11;;;;;;;1.50;0.60;;;;;;;18.84;46.17;100949.03;5041009;28;20049;-74
2021/05/23 07:02:38;;;;;;;0.75;0.57;;;;;;;18.82;46.27;100953.78;5057629;28;20501;-74
2021/05/23 07:05:05;;;;;;;1.75;0.70;;;;;;;18.85;46.16;100958.75;5073816;28;20090;-73
2021/05/23 07:07:32;;;;;;;1.15;0.60;;;;;;;18.85;45.74;100957.94;5086158;28;20038;-73
2021/05/23 07:09:59;;;;;;;1.35;0.65;;;;;;;18.84;45.66;100975.91;5076572;28;20530;-73
2021/05/23 07:12:26;;;;;;;0.75;0.60;;;;;;;18.87;46.00;100980.06;5093502;28;20404;-73
2021/05/23 07:14:53;;;;;;;1.67;0.80;;;;;;;18.86;45.83;100971.16;5093051;28;20072;-73
2021/05/23 07:17:20;;;;;;;1.65;0.77;;;;;;;18.85;46.04;100976.75;5093319;28;20553;-73
2021/05/23 07:19:48;;;;;;;1.55;0.57;;;;;;;18.87;45.77;100980.06;5060391;28;20064;-74
2021/05/23 07:22:15;;;;;;;1.33;0.65;;;;;;;18.85;45.86;100991.00;5093107;28;20032;-73
2021/05/23 07:24:42;;;;;;;0.60;0.50;;;;;;;18.85;45.88;100982.13;5093046;28;20063;-73
2021/05/23 07:27:10;;;;;;;0.68;0.50;;;;;;;18.87;46.01;100980.88;5059961;28;20036;-73
2021/05/23 07:29:37;;;;;;;0.77;0.52;;;;;;;18.88;46.08;100989.75;5092938;28;20454;-74
2021/05/23 07:32:04;;;;;;;1.13;0.65;;;;;;;18.83;45.83;100985.00;5076493;28;20409;-74
2021/05/23 07:34:31;;;;;;;0.82;0.50;;;;;;;18.84;45.88;100973.22;5092941;28;20036;-73
2021/05/23 07:36:58;;;;;;;0.77;0.60;;;;;;;18.85;45.90;100990.19;5092499;28;20392;-73
2021/05/23 07:39:25;;;;;;;1.90;0.65;;;;;;;18.86;45.70;100989.13;5092747;28;20040;-73
2021/05/23 07:41:52;;;;;;;0.77;0.50;;;;;;;18.84;45.99;100994.72;5076327;28;20040;-73
2021/05/23 07:44:20;;;;;;;0.77;0.47;;;;;;;18.84;45.84;100996.59;5076266;28;20044;-73
2021/05/23 07:46:47;;;;;;;0.60;0.60;;;;;;;18.81;45.75;100989.75;5075863;28;20081;-73
2021/05/23 07:49:16;;;;;;;1.23;0.60;;;;;;;18.85;45.88;101009.81;5094273;28;20051;-74
2021/05/23 07:51:44;;;;;;;1.55;0.70;;;;;;;18.84;45.83;100997.41;5059374;28;20076;-74
2021/05/23 07:54:12;;;;;;;1.08;0.50;;;;;;;18.87;45.81;101001.56;5092504;28;20040;-73
2021/05/23 07:56:41;;;;;;;1.02;0.52;;;;;;;18.88;45.83;101019.31;5092595;28;20050;-73
2021/05/23 07:59:08;;;;;;;1.17;0.57;;;;;;;18.89;45.51;101015.63;5093786;28;20040;-73
2021/05/23 08:01:35;;;;;;;0.50;0.50;;;;;;;18.90;45.68;101018.13;5092555;28;20078;-73
2021/05/23 08:04:03;;;;;;;0.93;0.60;;;;;;;18.89;45.85;101024.50;5092252;28;20399;-73
2021/05/23 08:06:31;;;;;;;0.43;0.40;;;;;;;18.88;45.62;101022.88;5093311;28;20456;-73
2021/05/23 08:08:58;;;;;;;1.10;0.50;;;;;;;18.91;45.65;101019.75;5092214;28;20040;-73
2021/05/23 08:11:25;;;;;;;0.77;0.50;;;;;;;18.92;45.84;101039.41;5075633;28;20064;-73
2021/05/23 08:13:52;;;;;;;0.90;0.60;;;;;;;18.90;45.62;101033.38;5092095;28;20052;-74
2021/05/23 08:16:19;;;;;;;0.95;0.55;;;;;;;18.89;45.50;101037.94;5085118;28;20086;-73
2021/05/23 08:18:46;;;;;;;1.13;0.60;;;;;;;18.89;45.31;101048.69;5091813;28;20484;-74
2021/05/23 08:21:14;;;;;;;2.15;0.70;;;;;;;18.89;45.70;101050.56;5055289;28;20135;-73
2021/05/23 08:23:43;;;;;;;2.45;0.75;;;;;;;18.90;45.61;101039.63;5071819;28;20484;-74
2021/05/23 08:26:11;;;;;;;1.30;0.68;;;;;;;18.89;45.35;101040.63;5055132;28;20044;-74
2021/05/23 08:28:38;;;;;;;1.15;0.60;;;;;;;18.89;45.44;101046.00;5072966;28;20094;-74
2021/05/23 08:31:05;;;;;;;0.95;0.60;;;;;;;18.92;45.12;101051.00;5064831;28;20045;-73
2021/05/23 08:33:32;;;;;;;0.82;0.50;;;;;;;18.92;45.45;101040.25;5071601;28;20412;-73
2021/05/23 08:36:00;;;;;;;0.82;0.50;;;;;;;18.92;45.21;101048.31;5089521;28;20071;-73
2021/05/23 08:38:27;;;;;;;1.85;0.52;;;;;;;18.92;45.24;101048.31;5092890;28;20048;-73
2021/05/23 08:40:56;;;;;;;0.82;0.60;;;;;;;18.93;45.48;101057.19;5075489;28;20403;-74
2021/05/23 08:43:26;;;;;;;1.90;0.60;;;;;;;18.92;45.14;101053.69;5092952;28;20047;-73
2021/05/23 08:45:54;;;;;;;0.95;0.70;;;;;;;18.95;45.33;101047.06;5092316;28;20089;-73
2021/05/23 08:48:21;;;;;;;0.73;0.50;;;;;;;18.94;45.36;101051.63;5058284;28;20074;-74
2021/05/23 08:50:49;;;;;;;1.02;0.43;;;;;;;18.95;45.17;101057.81;5091480;28;20036;-73
2021/05/23 08:53:17;;;;;;;1.13;0.60;;;;;;;18.95;45.30;101064.00;5091551;28;20419;-73
2021/05/23 08:55:45;;;;;;;2.33;0.80;;;;;;;18.95;45.14;101073.94;5074753;28;20072;-73
2021/05/23 08:58:14;;;;;;;1.55;0.57;;;;;;;18.95;45.32;101071.25;5074988;28;20089;-73
2021/05/23 09:00:42;;;;;;;1.15;0.70;;;;;;;18.95;45.14;101077.44;5092683;28;20044;-73
2021/05/23 09:03:13;;;;;;;1.13;0.63;;;;;;;18.93;45.17;101063.38;5074985;28;20040;-73
2021/05/23 09:05:48;;;;;;;1.20;0.57;;;;;;;18.94;44.91;101069.59;5075021;28;20454;-74
2021/05/23 09:08:18;;;;;;;1.10;0.50;;;;;;;18.98;45.12;101077.06;5075088;28;20051;-74
2021/05/23 09:10:49;;;;;;;0.73;0.50;;;;;;;18.95;45.05;101064.00;5091404;28;20040;-74
2021/05/23 09:13:34;;;;;;;0.77;0.50;;;;;;;18.98;44.92;101070.84;5058477;28;20503;-73
2021/05/23 09:16:05;;;;;;;1.25;0.63;;;;;;;19.00;44.94;101074.16;5090925;28;20393;-73
2021/05/23 09:18:54;;;;;;;1.08;0.60;;;;;;;18.96;44.26;101064.84;5074374;28;20464;-73
2021/05/23 09:21:24;;;;;;;2.20;0.70;;;;;;;18.95;44.64;101074.75;5073886;28;20051;-73
2021/05/23 09:23:57;;;;;;;2.25;0.77;;;;;;;18.96;44.63;101087.19;5091403;28;20040;-73
2021/05/23 09:26:45;;;;;;;1.40;0.70;;;;;;;18.98;44.74;101085.13;5091397;28;20051;-73
2021/05/23 09:29:19;;;;;;;1.08;0.63;;;;;;;18.91;43.77;101086.13;5091688;28;20046;-74
2021/05/23 09:31:57;;;;;;;1.60;0.57;;;;;;;18.99;44.70;101086.78;5091812;28;20044;-73
2021/05/23 09:34:26;;;;;;;1.65;0.52;;;;;;;19.04;44.43;101090.72;5091448;28;20039;-73
2021/05/23 09:36:54;;;;;;;1.30;0.65;;;;;;;19.04;44.49;101083.47;5092257;28;20051;-73
2021/05/23 09:39:33;;;;;;;1.38;0.63;;;;;;;19.06;44.32;101100.22;5095560;28;20426;-73
2021/05/23 09:42:04;;;;;;;0.63;0.50;;;;;;;19.04;44.33;101094.22;5078393;28;20380;-73
2021/05/23 09:44:32;;;;;;;0.43;0.43;;;;;;;19.08;44.06;101108.97;5061989;28;20077;-73
2021/05/23 09:47:08;;;;;;;0.95;0.60;;;;;;;19.07;44.44;101104.59;5046436;28;20538;-73
2021/05/23 09:49:53;;;;;;;1.38;0.50;;;;;;;19.07;44.33;101118.03;5095417;28;20048;-73
2021/05/23 09:52:37;;;;;;;1.45;0.50;;;;;;;19.08;44.21;101117.03;5095195;28;20048;-73
2021/05/23 09:55:05;;;;;;;1.48;0.60;;;;;;;19.11;44.41;101113.09;5078260;28;20040;-73
2021/05/23 09:57:33;;;;;;;0.60;0.50;;;;;;;19.09;44.23;101115.16;5094758;28;20399;-73
2021/05/23 10:00:07;;;;;;;1.38;0.70;;;;;;;19.13;44.15;101116.41;5074816;28;20173;-73
2021/05/23 10:02:56;;;;;;;0.85;0.40;;;;;;;19.16;44.02;101130.28;5058534;28;20381;-73
2021/05/23 10:05:24;;;;;;;1.23;0.50;;;;;;;19.19;43.94;101118.28;5041470;28;20044;-73
2021/05/23 10:07:51;;;;;;;0.90;0.52;;;;;;;19.14;43.96;101123.44;5057883;28;20114;-73
2021/05/23 10:10:19;;;;;;;0.50;0.50;;;;;;;19.24;43.95;101125.75;5074452;28;20488;-73
2021/05/23 10:12:46;;;;;;;0.80;0.57;;;;;;;19.26;43.43;101134.44;5074570;28;20090;-73
2021/05/23 10:15:13;;;;;;;0.80;0.50;;;;;;;19.28;43.72;101135.91;5057434;28;20519;-73
2021/05/23 10:17:53;;;;;;;0.98;0.57;;;;;;;19.31;43.67;101131.97;5044634;28;20067;-73
2021/05/23 10:20:21;;;;;;;1.25;0.50;;;;;;;19.30;43.45;101130.31;5087479;28;20113;-73
2021/05/23 10:22:49;;;;;;;0.85;0.55;;;;;;;19.31;43.75;101135.50;5061166;28;20044;-73
2021/05/23 10:25:16;;;;;;;0.98;0.60;;;;;;;19.24;43.84;101134.63;5095584;28;20520;-73
2021/05/23 10:27:45;;;;;;;1.15;0.55;;;;;;;19.21;43.82;101132.38;5077439;28;20099;-73
2021/05/23 10:30:13;;;;;;;0.82;0.57;;;;;;;19.18;43.83;101143.53;5094291;28;20134;-73
2021/05/23 10:32:42;;;;;;;1.48;0.60;;;;;;;19.19;43.93;101147.84;5094410;28;20067;-73
2021/05/23 10:37:53;;;;;;;0.93;0.68;;;;;;;19.11;43.65;101142.66;5130932;27;20476;-72
2021/05/23 10:40:26;;;;;;;0.85;0.50;;;;;;;19.13;44.15;101148.66;5112846;28;20046;-72
2021/05/23 10:42:55;;;;;;;2.30;0.60;;;;;;;19.12;43.65;101158.59;5095691;27;20040;-72
2021/05/23 10:48:18;;;;;;;1.73;0.50;;;;;;;19.09;44.01;101148.25;5110410;27;20358;-74
2021/05/23 10:50:47;;;;;;;1.25;0.47;;;;;;;19.05;43.82;101143.47;5092418;28;20051;-72
2021/05/23 10:53:14;;;;;;;1.75;0.55;;;;;;;19.05;43.61;101146.16;5092175;28;20043;-72
2021/05/23 10:55:51;;;;;;;0.73;0.50;;;;;;;19.05;43.93;101151.53;5065961;28;20048;-72
2021/05/23 10:58:26;;;;;;;0.73;0.32;;;;;;;19.04;43.82;101157.94;5072141;28;20082;-72
2021/05/23 11:00:57;;;;;;;0.98;0.57;;;;;;;19.05;43.79;101160.44;5088840;28;20049;-72
2021/05/23 11:03:26;;;;;;;1.55;0.70;;;;;;;19.04;43.55;101139.94;5088311;28;20044;-72
2021/05/23 11:06:04;;;;;;;1.13;0.55;;;;;;;19.08;43.78;101153.81;5072183;28;20147;-71
2021/05/23 11:08:33;;;;;;;1.40;0.60;;;;;;;19.14;43.51;101145.78;5088417;28;20036;-72
2021/05/23 11:11:02;;;;;;;1.05;0.47;;;;;;;19.16;43.41;101141.03;5055614;28;20056;-72
2021/05/23 11:13:33;;;;;;;1.58;0.57;;;;;;;19.24;43.24;101149.94;5088648;28;20052;-72
2021/05/23 11:16:14;;;;;;;1.05;0.57;;;;;;;19.34;42.71;101145.84;5088452;28;20052;-73
2021/05/23 11:18:41;;;;;;;0.55;0.47;;;;;;;19.40;42.96;101162.22;5071894;28;20044;-72
2021/05/23 11:21:12;;;;;;;1.25;0.60;;;;;;;19.33;43.32;101148.75;5069657;28;20049;-72
2021/05/23 11:23:55;;;;;;;0.87;0.57;;;;;;;19.27;43.25;101158.44;5068387;28;20560;-74
2021/05/23 11:26:25;;;;;;;0.80;0.50;;;;;;;19.25;43.60;101152.44;5069181;28;20047;-74
2021/05/23 11:28:55;;;;;;;0.77;0.50;;;;;;;19.24;43.07;101166.91;5084904;28;20512;-74
2021/05/23 11:31:27;;;;;;;1.20;0.60;;;;;;;19.29;43.50;101151.00;5071895;28;20074;-74
2021/05/23 11:33:55;;;;;;;0.77;0.47;;;;;;;19.38;42.89;101155.16;5088247;28;20056;-74
2021/05/23 11:36:25;;;;;;;1.45;0.50;;;;;;;19.45;43.05;101157.06;5071515;28;20074;-74
2021/05/23 11:38:56;;;;;;;1.05;0.50;;;;;;;19.47;42.90;101139.69;5088090;28;20041;-74
2021/05/23 11:44:06;;;;;;;1.23;0.50;;;;;;;19.54;42.82;101167.44;5070032;28;20951;-72
2021/05/23 11:46:33;;;;;;;1.40;0.50;;;;;;;19.50;42.72;101159.97;5021959;28;20073;-72
2021/05/23 11:49:01;;;;;;;1.20;0.50;;;;;;;19.43;42.93;101151.03;5050193;28;20048;-73